createdAt,value
2019-03-24T00:00:08.221Z,59.07
2019-03-24T00:02:36.840Z,56.93
2019-03-24T00:05:06.366Z,55.53
2019-03-24T00:07:34.902Z,56.60
2019-03-24T00:10:04.523Z,51.70
2019-03-24T00:12:32.987Z,51.27
2019-03-24T00:15:01.552Z,51.23
2019-03-24T00:17:30.251Z,53.50
2019-03-24T00:19:59.060Z,51.73
2019-03-24T00:22:27.759Z,53.30
2019-03-24T00:24:56.574Z,60.23
2019-03-24T00:27:25.425Z,57.10
2019-03-24T00:29:57.516Z,54.90
2019-03-24T00:32:25.972Z,54.80
2019-03-24T00:34:54.470Z,52.60
2019-03-24T00:37:23.282Z,54.23
2019-03-24T00:39:52.116Z,48.10
2019-03-24T00:42:20.934Z,54.93
2019-03-24T00:44:49.784Z,55.53
2019-03-24T00:47:18.573Z,53.23
2019-03-24T00:49:47.453Z,58.50
2019-03-24T00:52:15.978Z,54.87
2019-03-24T00:54:44.592Z,50.43
2019-03-24T00:57:13.300Z,57.63
2019-03-24T00:59:42.151Z,52.10
2019-03-24T01:02:10.977Z,53.63
2019-03-24T01:04:39.404Z,55.87
2019-03-24T01:07:08.001Z,51.30
2019-03-24T01:09:36.829Z,56.17
2019-03-24T01:12:05.786Z,55.83
2019-03-24T01:14:34.482Z,52.63
2019-03-24T01:17:03.322Z,57.17
2019-03-24T01:19:32.155Z,53.70
2019-03-24T01:22:00.964Z,58.63
2019-03-24T01:24:29.918Z,57.60
2019-03-24T01:27:00.265Z,61.30
2019-03-24T01:29:29.132Z,54.17
2019-03-24T01:31:57.945Z,57.07
2019-03-24T01:34:26.767Z,55.37
2019-03-24T01:36:55.853Z,57.67
2019-03-24T01:39:24.292Z,54.73
2019-03-24T01:41:53.098Z,56.03
2019-03-24T01:44:21.905Z,57.07
2019-03-24T01:46:50.740Z,54.77
2019-03-24T01:49:19.151Z,56.57
2019-03-24T01:51:47.760Z,57.33
2019-03-24T01:54:16.464Z,53.97
2019-03-24T01:56:45.235Z,54.70
2019-03-24T01:59:13.711Z,65.53
2019-03-24T02:01:42.136Z,52.20
2019-03-24T02:04:10.563Z,62.80
2019-03-24T02:06:39.208Z,59.67
2019-03-24T02:09:08.345Z,58.30
2019-03-24T02:11:37.012Z,58.83
2019-03-24T02:14:05.816Z,62.40
2019-03-24T02:16:34.521Z,54.53
2019-03-24T02:19:02.985Z,58.70
2019-03-24T02:21:32.181Z,63.83
2019-03-24T02:24:00.641Z,61.30
2019-03-24T02:26:29.164Z,58.17
2019-03-24T02:28:58.055Z,64.87
2019-03-24T02:31:26.770Z,61.33
2019-03-24T02:33:55.600Z,59.90
2019-03-24T02:36:24.416Z,62.00
2019-03-24T02:38:53.240Z,62.80
2019-03-24T02:41:22.094Z,59.20
2019-03-24T02:43:50.917Z,61.27
2019-03-24T02:46:24.700Z,60.90
2019-03-24T02:48:50.119Z,61.00
2019-03-24T02:51:18.762Z,63.73
2019-03-24T02:53:47.591Z,67.90
2019-03-24T02:56:16.049Z,64.60
2019-03-24T02:58:44.442Z,65.57
2019-03-24T03:01:13.333Z,68.10
2019-03-24T03:03:41.796Z,67.33
2019-03-24T03:06:10.575Z,68.83
2019-03-24T03:08:39.316Z,70.47
2019-03-24T03:11:07.920Z,69.37
2019-03-24T03:13:36.739Z,64.60
2019-03-24T03:16:05.681Z,70.23
2019-03-24T03:18:34.419Z,68.23
2019-03-24T03:21:03.262Z,66.50
2019-03-24T03:23:32.198Z,66.73
2019-03-24T03:26:00.955Z,66.57
2019-03-24T03:28:29.783Z,69.07
2019-03-24T03:30:58.691Z,66.73
2019-03-24T03:33:27.527Z,64.53
2019-03-24T03:35:56.248Z,73.17
2019-03-24T03:38:24.706Z,69.00
2019-03-24T03:40:53.157Z,68.40
2019-03-24T03:43:21.973Z,71.03
2019-03-24T03:45:50.792Z,70.70
2019-03-24T03:48:19.669Z,63.60
2019-03-24T03:50:48.483Z,71.37
2019-03-24T03:53:17.349Z,64.07
2019-03-24T03:55:45.792Z,70.97
2019-03-24T03:58:14.284Z,69.43
2019-03-24T04:00:42.749Z,67.83
2019-03-24T04:03:11.398Z,68.93
2019-03-24T04:05:40.053Z,74.90
2019-03-24T04:08:09.269Z,73.33
2019-03-24T04:10:37.839Z,74.10
2019-03-24T04:13:06.286Z,71.33
2019-03-24T04:15:34.706Z,71.00
2019-03-24T04:18:03.225Z,64.07
2019-03-24T04:20:31.649Z,71.27
2019-03-24T04:23:00.149Z,69.37
2019-03-24T04:25:28.824Z,74.90
2019-03-24T04:27:57.452Z,72.63
2019-03-24T04:30:26.111Z,68.00
2019-03-24T04:32:54.817Z,76.00
2019-03-24T04:35:23.331Z,71.57
2019-03-24T04:37:52.145Z,76.13
2019-03-24T04:40:20.731Z,75.43
2019-03-24T04:42:52.638Z,68.67
2019-03-24T04:45:21.117Z,73.73
2019-03-24T04:47:49.531Z,73.33
2019-03-24T04:50:17.929Z,72.87
2019-03-24T04:52:46.620Z,73.40
2019-03-24T04:55:15.349Z,73.47
2019-03-24T04:57:44.123Z,76.03
2019-03-24T05:00:13.342Z,75.67
2019-03-24T05:02:41.800Z,68.73
2019-03-24T05:05:11.403Z,71.27
2019-03-24T05:07:41.037Z,74.63
2019-03-24T05:10:12.641Z,68.23
2019-03-24T05:12:41.249Z,70.77
2019-03-24T05:15:10.346Z,69.10
2019-03-24T05:17:39.032Z,74.00
2019-03-24T05:20:07.694Z,74.23
2019-03-24T05:22:36.204Z,77.60
2019-03-24T05:25:05.351Z,72.03
2019-03-24T05:27:33.763Z,68.83
2019-03-24T05:30:02.551Z,75.60
2019-03-24T05:32:31.001Z,74.40
2019-03-24T05:34:59.619Z,74.63
2019-03-24T05:37:28.275Z,69.13
2019-03-24T05:39:56.993Z,76.47
2019-03-24T05:42:25.595Z,71.00
2019-03-24T05:44:54.127Z,70.93
2019-03-24T05:47:22.932Z,71.17
2019-03-24T05:49:51.683Z,76.60
2019-03-24T05:52:20.515Z,72.90
2019-03-24T05:54:49.091Z,76.03
2019-03-24T05:57:17.923Z,69.73
2019-03-24T05:59:46.380Z,76.47
2019-03-24T06:02:14.843Z,77.67
2019-03-24T06:04:43.671Z,75.23
2019-03-24T06:07:12.420Z,75.53
2019-03-24T06:09:41.232Z,69.90
2019-03-24T06:12:10.082Z,71.50
2019-03-24T06:14:38.915Z,70.90
2019-03-24T06:17:09.393Z,74.20
2019-03-24T06:19:38.208Z,76.17
2019-03-24T06:22:07.031Z,72.73
2019-03-24T06:24:35.846Z,70.20
2019-03-24T06:27:04.749Z,76.30
2019-03-24T06:29:33.462Z,81.47
2019-03-24T06:32:01.874Z,79.93
2019-03-24T06:34:30.348Z,75.13
2019-03-24T06:36:58.755Z,71.83
2019-03-24T06:39:27.222Z,77.47
2019-03-24T06:41:55.681Z,78.30
2019-03-24T06:44:24.292Z,75.60
2019-03-24T06:46:53.022Z,72.00
2019-03-24T06:49:21.912Z,85.87
2019-03-24T06:51:50.575Z,82.57
2019-03-24T06:54:19.008Z,80.50
2019-03-24T06:56:47.634Z,80.53
2019-03-24T06:59:16.315Z,79.40
2019-03-24T07:01:45.156Z,78.77
2019-03-24T07:04:13.568Z,78.47
2019-03-24T07:06:42.097Z,82.13
2019-03-24T07:09:10.804Z,82.77
2019-03-24T07:11:39.247Z,72.97
2019-03-24T07:14:07.809Z,76.40
2019-03-24T07:16:36.539Z,78.70
2019-03-24T07:19:05.024Z,82.70
2019-03-24T07:21:33.573Z,78.43
2019-03-24T07:24:03.103Z,82.27
2019-03-24T07:26:33.265Z,82.23
2019-03-24T07:29:03.236Z,79.83
2019-03-24T07:31:31.884Z,83.33
2019-03-24T07:34:00.793Z,87.23
2019-03-24T07:36:29.373Z,80.92
2019-03-24T07:38:57.779Z,76.63
2019-03-24T07:41:26.223Z,81.47
2019-03-24T07:43:54.665Z,89.23
2019-03-24T07:46:23.759Z,80.93
2019-03-24T07:48:52.427Z,79.87
2019-03-24T07:51:20.876Z,79.93
2019-03-24T07:53:49.337Z,76.77
2019-03-24T07:56:17.837Z,75.80
2019-03-24T07:58:46.608Z,74.50
2019-03-24T08:01:15.454Z,79.37
2019-03-24T08:03:43.863Z,80.87
2019-03-24T08:06:12.762Z,77.80
2019-03-24T08:08:44.373Z,80.23
2019-03-24T08:11:11.396Z,80.73
2019-03-24T08:13:39.812Z,73.80
2019-03-24T08:16:08.644Z,76.87
2019-03-24T08:18:37.090Z,73.00
2019-03-24T08:21:06.029Z,74.70
2019-03-24T08:23:34.849Z,73.10
2019-03-24T08:26:07.145Z,71.30
2019-03-24T08:28:36.091Z,80.60
2019-03-24T08:31:04.948Z,71.57
2019-03-24T08:33:33.381Z,72.97
2019-03-24T08:36:01.834Z,73.30
2019-03-24T08:38:30.557Z,76.67
2019-03-24T08:40:58.964Z,69.30
2019-03-24T08:43:28.098Z,74.77
2019-03-24T08:45:56.862Z,71.10
2019-03-24T08:48:25.364Z,68.50
2019-03-24T08:50:54.295Z,72.23
2019-03-24T08:53:22.708Z,81.27
2019-03-24T08:55:51.392Z,69.77
2019-03-24T08:58:19.859Z,73.13
2019-03-24T09:00:49.824Z,67.17
2019-03-24T09:03:18.659Z,73.70
2019-03-24T09:05:47.137Z,70.73
2019-03-24T09:08:15.775Z,68.03
2019-03-24T09:10:44.364Z,67.07
2019-03-24T09:13:14.303Z,64.07
2019-03-24T09:15:43.316Z,69.77
2019-03-24T09:18:11.746Z,62.17
2019-03-24T09:20:41.815Z,68.97
2019-03-24T09:23:10.853Z,68.63
2019-03-24T09:25:39.693Z,72.57
2019-03-24T09:28:09.300Z,67.23
2019-03-24T09:30:39.146Z,61.43
2019-03-24T09:33:07.966Z,65.93
2019-03-24T09:35:36.389Z,66.13
2019-03-24T09:38:05.455Z,67.60
2019-03-24T09:40:37.100Z,59.03
2019-03-24T09:43:06.312Z,72.00
2019-03-24T09:45:34.736Z,67.70
2019-03-24T09:48:03.375Z,62.90
2019-03-24T09:50:32.390Z,66.47
2019-03-24T09:53:01.002Z,63.67
2019-03-24T09:55:29.966Z,61.50
2019-03-24T09:57:58.681Z,70.80
2019-03-24T10:00:27.128Z,63.97
2019-03-24T10:02:55.887Z,59.93
2019-03-24T10:05:24.772Z,58.57
2019-03-24T10:07:53.688Z,66.43
2019-03-24T10:10:22.940Z,61.77
2019-03-24T10:12:51.602Z,62.80
2019-03-24T10:15:20.062Z,61.83
2019-03-24T10:17:48.566Z,62.53
2019-03-24T10:20:17.093Z,67.93
2019-03-24T10:22:45.908Z,61.13
2019-03-24T10:25:14.358Z,64.80
2019-03-24T10:27:42.795Z,59.53
2019-03-24T10:30:11.497Z,58.30
2019-03-24T10:32:40.345Z,59.43
2019-03-24T10:35:09.311Z,59.83
2019-03-24T10:37:37.740Z,66.40
2019-03-24T10:40:08.397Z,60.53
2019-03-24T10:42:55.595Z,60.83
2019-03-24T10:45:24.123Z,57.67
2019-03-24T10:47:52.817Z,62.60
2019-03-24T10:50:21.274Z,59.47
2019-03-24T10:52:50.062Z,59.90
2019-03-24T10:55:18.513Z,55.83
2019-03-24T10:57:47.304Z,57.27
2019-03-24T11:00:19.341Z,58.83
2019-03-24T11:02:47.810Z,57.57
2019-03-24T11:05:16.385Z,58.70
2019-03-24T11:07:45.280Z,62.47
2019-03-24T11:10:15.331Z,55.93
2019-03-24T11:12:44.235Z,57.23
2019-03-24T11:15:13.139Z,64.77
2019-03-24T11:17:41.563Z,61.53
2019-03-24T11:20:10.478Z,56.23
2019-03-24T11:22:39.358Z,59.37
2019-03-24T11:25:09.845Z,58.23
2019-03-24T11:27:38.888Z,60.70
2019-03-24T11:30:12.880Z,61.07
2019-03-24T11:32:41.839Z,57.90
2019-03-24T11:35:11.417Z,56.90
2019-03-24T11:37:40.336Z,55.70
2019-03-24T11:40:10.275Z,57.10
2019-03-24T11:42:38.855Z,59.30
2019-03-24T11:45:10.267Z,52.63
2019-03-24T11:47:38.861Z,58.47
2019-03-24T11:50:09.243Z,62.57
2019-03-24T11:52:38.368Z,63.27
2019-03-24T11:55:09.032Z,59.33
2019-03-24T11:57:37.816Z,62.83
2019-03-24T12:00:12.749Z,58.73
2019-03-24T12:02:41.505Z,66.50
2019-03-24T12:05:11.241Z,61.70
2019-03-24T12:07:40.086Z,62.27
2019-03-24T12:10:10.531Z,65.53
2019-03-24T12:12:39.017Z,59.37
2019-03-24T12:15:08.788Z,62.83
2019-03-24T12:17:38.068Z,61.37
2019-03-24T12:20:08.367Z,62.43
2019-03-24T12:22:36.883Z,61.70
2019-03-24T12:25:06.541Z,68.10
2019-03-24T12:27:35.478Z,65.53
2019-03-24T12:30:06.683Z,62.40
2019-03-24T12:32:35.085Z,64.77
2019-03-24T12:35:06.549Z,63.43
2019-03-24T12:37:35.023Z,63.53
2019-03-24T12:40:05.623Z,67.33
2019-03-24T12:42:34.554Z,70.00
2019-03-24T12:45:03.174Z,69.47
2019-03-24T12:47:31.575Z,72.17
2019-03-24T12:50:08.717Z,67.33
2019-03-24T12:52:30.428Z,67.07
2019-03-24T12:54:58.891Z,65.33
2019-03-24T12:57:27.343Z,69.60
2019-03-24T12:59:56.029Z,65.10
2019-03-24T13:02:24.487Z,68.30
2019-03-24T13:04:53.236Z,69.47
2019-03-24T13:07:21.654Z,69.40
2019-03-24T13:09:50.558Z,70.97
2019-03-24T13:12:19.562Z,65.30
2019-03-24T13:14:49.500Z,68.07
2019-03-24T13:17:18.299Z,72.57
2019-03-24T13:19:46.751Z,68.30
2019-03-24T13:22:15.537Z,66.37
2019-03-24T13:24:44.312Z,70.63
2019-03-24T13:27:15.896Z,71.90
2019-03-24T13:29:45.042Z,68.23
2019-03-24T13:32:13.843Z,63.73
2019-03-24T13:34:42.247Z,61.40
2019-03-24T13:37:11.111Z,65.07
2019-03-24T13:39:41.334Z,57.23
2019-03-24T13:42:09.707Z,57.03
2019-03-24T13:44:38.598Z,57.63
2019-03-24T13:47:07.068Z,55.50
2019-03-24T13:49:35.504Z,56.27
2019-03-24T13:52:04.046Z,59.07
2019-03-24T13:54:32.702Z,57.17
2019-03-24T13:57:01.500Z,58.67
2019-03-24T13:59:30.031Z,54.17
2019-03-24T14:01:58.837Z,60.83
2019-03-24T14:04:27.708Z,56.57
2019-03-24T14:06:56.185Z,57.03
2019-03-24T14:09:25.008Z,55.23
2019-03-24T14:11:53.978Z,53.00
2019-03-24T14:14:22.393Z,45.77
2019-03-24T14:16:51.148Z,46.63
2019-03-24T14:19:19.643Z,45.97
2019-03-24T14:21:48.249Z,46.33
2019-03-24T14:24:17.198Z,41.37
2019-03-24T14:27:10.548Z,38.50
2019-03-24T14:29:42.348Z,40.63
2019-03-24T14:32:11.243Z,42.77
2019-03-24T14:34:40.114Z,41.37
2019-03-24T14:37:08.524Z,43.70
2019-03-24T14:39:38.584Z,41.47
2019-03-24T14:42:07.118Z,46.97
2019-03-24T14:44:35.809Z,42.83
2019-03-24T14:47:05.131Z,49.03
2019-03-24T14:49:33.829Z,44.47
2019-03-24T14:52:02.335Z,41.87
2019-03-24T14:54:31.083Z,43.60
2019-03-24T14:56:59.799Z,42.57
2019-03-24T14:59:28.320Z,42.03
2019-03-24T15:01:57.057Z,38.70
2019-03-24T15:04:25.481Z,39.33
2019-03-24T15:06:54.227Z,40.47
2019-03-24T15:09:22.669Z,42.30
2019-03-24T15:12:12.628Z,39.90
2019-03-24T15:14:41.096Z,43.77
2019-03-24T15:17:09.781Z,38.40
2019-03-24T15:19:38.246Z,39.53
2019-03-24T15:22:07.084Z,42.87
2019-03-24T15:24:35.524Z,42.70
2019-03-24T15:27:40.857Z,42.90
2019-03-24T15:30:09.945Z,42.40
2019-03-24T15:32:38.662Z,41.77
2019-03-24T15:35:07.957Z,44.80
2019-03-24T15:37:36.775Z,42.23
2019-03-24T15:40:06.608Z,41.67
2019-03-24T15:42:35.558Z,42.30
2019-03-24T15:45:06.215Z,42.27
2019-03-24T15:47:34.901Z,47.77
2019-03-24T15:50:05.062Z,46.07
2019-03-24T15:52:33.811Z,43.90
2019-03-24T15:55:02.233Z,48.00
2019-03-24T15:57:31.029Z,47.53
2019-03-24T15:59:59.433Z,45.93
2019-03-24T16:02:27.849Z,42.90
2019-03-24T16:04:56.884Z,44.60
2019-03-24T16:07:25.863Z,37.97
2019-03-24T16:09:54.742Z,37.83
2019-03-24T16:12:23.204Z,39.40
2019-03-24T16:14:51.914Z,40.73
2019-03-24T16:17:20.722Z,33.97
2019-03-24T16:19:49.164Z,37.70
2019-03-24T16:22:17.628Z,39.47
2019-03-24T16:24:46.038Z,37.30
2019-03-24T16:27:14.499Z,34.00
2019-03-24T16:29:43.811Z,34.50
2019-03-24T16:32:12.223Z,31.87
2019-03-24T16:34:40.843Z,31.50
2019-03-24T16:37:09.802Z,31.00
2019-03-24T16:39:38.560Z,29.00
2019-03-24T16:42:06.996Z,26.20
2019-03-24T16:44:35.731Z,28.63
2019-03-24T16:47:04.170Z,24.33
2019-03-24T16:49:32.972Z,22.53
2019-03-24T16:52:01.763Z,22.10
2019-03-24T16:54:30.233Z,19.60
2019-03-24T16:57:14.419Z,21.23
2019-03-24T16:59:43.160Z,17.77
2019-03-24T17:02:11.565Z,18.40
2019-03-24T17:04:40.221Z,16.40
2019-03-24T17:07:09.145Z,17.67
2019-03-24T17:09:37.620Z,20.50
2019-03-24T17:12:06.407Z,19.20
2019-03-24T17:14:35.312Z,17.67
2019-03-24T17:17:04.299Z,16.90
2019-03-24T17:19:33.083Z,20.03
2019-03-24T17:22:01.512Z,20.57
2019-03-24T17:24:30.357Z,18.67
2019-03-24T17:26:58.753Z,19.90
2019-03-24T17:29:27.162Z,17.90
2019-03-24T17:31:55.621Z,19.93
2019-03-24T17:34:24.397Z,19.60
2019-03-24T17:36:53.156Z,44.50
2019-03-24T17:39:21.702Z,24.47
2019-03-24T17:41:50.133Z,21.97
2019-03-24T17:44:18.937Z,22.77
2019-03-24T17:46:48.085Z,21.43
2019-03-24T17:49:16.976Z,21.30
2019-03-24T17:51:45.870Z,22.73
2019-03-24T17:54:14.672Z,20.27
2019-03-24T17:56:43.534Z,25.57
2019-03-24T17:59:14.380Z,22.50
2019-03-24T18:01:43.125Z,22.43
2019-03-24T18:04:11.602Z,26.37
2019-03-24T18:06:40.369Z,25.63
2019-03-24T18:09:09.334Z,26.10
2019-03-24T18:11:38.287Z,25.93
2019-03-24T18:14:07.127Z,25.23
2019-03-24T18:16:35.596Z,24.27
2019-03-24T18:19:04.082Z,25.63
2019-03-24T18:21:32.597Z,24.23
2019-03-24T18:24:01.475Z,29.47
2019-03-24T18:26:29.901Z,22.43
2019-03-24T18:28:58.755Z,26.40
2019-03-24T18:31:27.450Z,22.73
2019-03-24T18:33:56.201Z,25.53
2019-03-24T18:36:24.657Z,25.63
2019-03-24T18:38:53.398Z,28.27
2019-03-24T18:41:21.847Z,25.70
2019-03-24T18:43:50.511Z,27.73
2019-03-24T18:46:19.510Z,33.00
2019-03-24T18:48:48.158Z,32.83
2019-03-24T18:51:16.573Z,27.90
2019-03-24T18:53:45.085Z,30.23
2019-03-24T18:56:13.569Z,30.83
2019-03-24T18:58:42.242Z,36.47
2019-03-24T19:01:10.923Z,34.17
2019-03-24T19:03:39.404Z,37.87
2019-03-24T19:06:07.904Z,37.73
2019-03-24T19:08:36.317Z,39.63
2019-03-24T19:11:05.240Z,39.97
2019-03-24T19:13:34.175Z,47.03
2019-03-24T19:16:02.627Z,39.97
2019-03-24T19:18:31.266Z,42.93
2019-03-24T19:20:59.724Z,41.17
2019-03-24T19:23:28.229Z,43.00
2019-03-24T19:25:56.792Z,41.83
2019-03-24T19:28:25.246Z,39.97
2019-03-24T19:30:53.874Z,42.23
2019-03-24T19:33:22.757Z,42.60
2019-03-24T19:35:51.227Z,49.63
2019-03-24T19:38:20.773Z,44.60
2019-03-24T19:40:49.201Z,38.13
2019-03-24T19:43:17.684Z,38.10
2019-03-24T19:45:46.171Z,38.83
2019-03-24T19:48:14.969Z,33.97
2019-03-24T19:50:43.825Z,37.00
2019-03-24T19:53:12.526Z,36.60
2019-03-24T19:55:40.976Z,35.27
2019-03-24T19:58:09.728Z,38.27
2019-03-24T20:00:38.682Z,36.97
2019-03-24T20:03:07.171Z,36.30
2019-03-24T20:05:35.875Z,34.10
2019-03-24T20:08:04.742Z,37.67
2019-03-24T20:10:33.162Z,30.47
2019-03-24T20:13:02.165Z,32.47
2019-03-24T20:15:31.202Z,24.07
2019-03-24T20:18:00.148Z,25.23
2019-03-24T20:20:28.603Z,22.53
2019-03-24T20:22:57.481Z,21.57
2019-03-24T20:25:26.337Z,30.10
2019-03-24T20:27:57.932Z,24.40
2019-03-24T20:30:26.626Z,22.00
2019-03-24T20:32:55.308Z,26.37
2019-03-24T20:35:24.269Z,25.43
2019-03-24T20:37:53.282Z,23.13
2019-03-24T20:40:22.071Z,22.43
2019-03-24T20:42:50.711Z,25.40
2019-03-24T20:45:19.526Z,22.60
2019-03-24T20:47:47.959Z,23.57
2019-03-24T20:50:16.787Z,21.53
2019-03-24T20:52:45.573Z,22.33
2019-03-24T20:55:14.487Z,23.47
2019-03-24T20:57:42.994Z,20.37
2019-03-24T21:00:12.670Z,18.17
2019-03-24T21:02:41.082Z,21.37
2019-03-24T21:05:11.084Z,18.37
2019-03-24T21:07:39.862Z,18.07
2019-03-24T21:10:08.704Z,18.20
2019-03-24T21:12:37.658Z,17.30
2019-03-24T21:15:08.236Z,14.07
2019-03-24T21:17:36.713Z,19.57
2019-03-24T21:20:08.163Z,16.13
2019-03-24T21:22:36.572Z,16.13
2019-03-24T21:25:07.148Z,15.97
2019-03-24T21:27:36.016Z,17.83
2019-03-24T21:30:06.470Z,12.47
2019-03-24T21:32:34.926Z,12.40
2019-03-24T21:35:04.450Z,17.07
2019-03-24T21:37:32.873Z,14.70
2019-03-24T21:40:01.683Z,14.97
2019-03-24T21:42:30.101Z,13.77
2019-03-24T21:44:58.934Z,18.27
2019-03-24T21:47:27.404Z,19.97
2019-03-24T21:49:56.116Z,19.60
2019-03-24T21:52:24.515Z,15.73
2019-03-24T21:54:53.331Z,17.83
2019-03-24T21:57:21.742Z,15.73
2019-03-24T21:59:50.392Z,17.53
2019-03-24T22:02:19.262Z,16.13
2019-03-24T22:04:48.204Z,15.33
2019-03-24T22:07:16.894Z,15.27
2019-03-24T22:09:45.838Z,16.33
2019-03-24T22:12:14.373Z,13.87
2019-03-24T22:14:42.950Z,15.37
2019-03-24T22:17:11.383Z,13.73
2019-03-24T22:19:39.920Z,16.53
2019-03-24T22:22:08.538Z,16.97
2019-03-24T22:24:37.050Z,16.03
2019-03-24T22:27:05.764Z,16.47
2019-03-24T22:29:34.312Z,13.43
2019-03-24T22:32:02.845Z,13.80
2019-03-24T22:34:31.470Z,14.17
2019-03-24T22:37:00.102Z,15.70
2019-03-24T22:39:28.788Z,12.60
2019-03-24T22:41:57.340Z,13.77
2019-03-24T22:44:25.933Z,15.73
2019-03-24T22:46:54.538Z,14.33
2019-03-24T22:49:23.122Z,13.80
2019-03-24T22:51:51.658Z,13.97
2019-03-24T22:54:20.249Z,10.40
2019-03-24T22:56:49.166Z,16.00
2019-03-24T22:59:17.668Z,16.43
2019-03-24T23:01:46.463Z,12.57
2019-03-24T23:04:15.210Z,15.00
2019-03-24T23:06:43.815Z,13.53
2019-03-24T23:09:12.394Z,13.07
2019-03-24T23:11:41.116Z,16.13
2019-03-24T23:14:09.604Z,15.07
2019-03-24T23:16:38.140Z,11.13
2019-03-24T23:19:06.705Z,11.33
2019-03-24T23:21:35.372Z,11.50
2019-03-24T23:24:14.617Z,14.77
2019-03-24T23:26:34.286Z,12.07
2019-03-24T23:29:02.719Z,15.23
2019-03-24T23:31:33.947Z,12.67
2019-03-24T23:34:01.484Z,15.57
2019-03-24T23:36:29.966Z,11.23
2019-03-24T23:38:58.798Z,11.30
2019-03-24T23:41:27.233Z,17.13
2019-03-24T23:43:55.755Z,16.60
2019-03-24T23:46:24.354Z,14.17
2019-03-24T23:48:52.899Z,12.77
2019-03-24T23:51:21.575Z,15.10
2019-03-24T23:53:50.147Z,13.83
2019-03-24T23:56:18.776Z,15.17
2019-03-24T23:58:47.422Z,12.87
